sensor_id;sensor_type;location;lat;lon;timestamp;pressure;altitude;pressure_sealevel;temperature;humidity
48404;BME280;34202;52.536;6.042;2024-03-02T00:02:56;100047.80;;;7.47;100.00
48404;BME280;34202;52.536;6.042;2024-03-02T00:07:57;100051.08;;;7.46;100.00
48404;BME280;34202;52.536;6.042;2024-03-02T00:12:58;100044.50;;;7.44;100.00
48404;BME280;34202;52.536;6.042;2024-03-02T00:17:58;100028.40;;;7.42;100.00
48404;BME280;34202;52.536;6.042;2024-03-02T00:23:09;100018.70;;;7.41;100.00
48404;BME280;34202;52.536;6.042;2024-03-02T00:28:17;100009.17;;;7.43;100.00
48404;BME280;34202;52.536;6.042;2024-03-02T00:33:19;100003.80;;;7.43;100.00
48404;BME280;34202;52.536;6.042;2024-03-02T00:38:21;100000.00;;;7.43;100.00
48404;BME280;34202;52.536;6.042;2024-03-02T00:48:35;100000.52;;;7.43;100.00
48404;BME280;34202;52.536;6.042;2024-03-02T00:53:36;99998.79;;;7.42;100.00
48404;BME280;34202;52.536;6.042;2024-03-02T00:58:38;99995.84;;;7.41;100.00
48404;BME280;34202;52.536;6.042;2024-03-02T01:03:39;99997.91;;;7.41;100.00
48404;BME280;34202;52.536;6.042;2024-03-02T01:08:39;100004.15;;;7.43;100.00
48404;BME280;34202;52.536;6.042;2024-03-02T01:13:40;100009.17;;;7.45;100.00
48404;BME280;34202;52.536;6.042;2024-03-02T01:18:41;100003.65;;;7.46;100.00
48404;BME280;34202;52.536;6.042;2024-03-02T01:23:41;100011.81;;;7.49;100.00
48404;BME280;34202;52.536;6.042;2024-03-02T01:28:41;100015.64;;;7.51;100.00
48404;BME280;34202;52.536;6.042;2024-03-02T01:33:42;100021.00;;;7.53;100.00
48404;BME280;34202;52.536;6.042;2024-03-02T01:38:42;100020.33;;;7.55;100.00
48404;BME280;34202;52.536;6.042;2024-03-02T01:43:43;100021.91;;;7.58;100.00
48404;BME280;34202;52.536;6.042;2024-03-02T01:48:43;100028.85;;;7.61;100.00
48404;BME280;34202;52.536;6.042;2024-03-02T01:53:43;100037.35;;;7.63;100.00
48404;BME280;34202;52.536;6.042;2024-03-02T01:58:44;100048.10;;;7.68;100.00
48404;BME280;34202;52.536;6.042;2024-03-02T02:03:45;100054.55;;;7.73;100.00
48404;BME280;34202;52.536;6.042;2024-03-02T02:08:45;100057.02;;;7.81;100.00
48404;BME280;34202;52.536;6.042;2024-03-02T02:13:47;100059.48;;;7.87;100.00
48404;BME280;34202;52.536;6.042;2024-03-02T02:18:47;100054.50;;;7.93;100.00
48404;BME280;34202;52.536;6.042;2024-03-02T02:23:48;100046.36;;;7.97;100.00
48404;BME280;34202;52.536;6.042;2024-03-02T02:28:48;100041.86;;;7.99;100.00
48404;BME280;34202;52.536;6.042;2024-03-02T02:33:49;100036.31;;;8.00;100.00
48404;BME280;34202;52.536;6.042;2024-03-02T02:38:49;100026.62;;;8.01;100.00
48404;BME280;34202;52.536;6.042;2024-03-02T02:43:50;100018.13;;;8.01;100.00
48404;BME280;34202;52.536;6.042;2024-03-02T02:48:50;100009.27;;;8.00;100.00
48404;BME280;34202;52.536;6.042;2024-03-02T02:53:53;99999.06;;;7.99;100.00
48404;BME280;34202;52.536;6.042;2024-03-02T02:58:54;99998.88;;;7.97;100.00
48404;BME280;34202;52.536;6.042;2024-03-02T03:03:54;100005.63;;;7.96;100.00
48404;BME280;34202;52.536;6.042;2024-03-02T03:08:54;100012.38;;;7.93;100.00
48404;BME280;34202;52.536;6.042;2024-03-02T03:13:55;100023.29;;;7.91;100.00
48404;BME280;34202;52.536;6.042;2024-03-02T03:18:55;100036.96;;;7.90;100.00
48404;BME280;34202;52.536;6.042;2024-03-02T03:23:56;100035.06;;;7.88;100.00
48404;BME280;34202;52.536;6.042;2024-03-02T03:28:56;100034.02;;;7.87;100.00
48404;BME280;34202;52.536;6.042;2024-03-02T03:33:56;100037.48;;;7.86;100.00
48404;BME280;34202;52.536;6.042;2024-03-02T03:38:58;100047.67;;;7.84;100.00
48404;BME280;34202;52.536;6.042;2024-03-02T03:43:58;100046.45;;;7.82;100.00
48404;BME280;34202;52.536;6.042;2024-03-02T03:48:59;100048.00;;;7.80;100.00
48404;BME280;34202;52.536;6.042;2024-03-02T03:53:59;100047.13;;;7.78;100.00
48404;BME280;34202;52.536;6.042;2024-03-02T03:59:00;100061.31;;;7.75;100.00
48404;BME280;34202;52.536;6.042;2024-03-02T04:04:00;100064.76;;;7.72;100.00
48404;BME280;34202;52.536;6.042;2024-03-02T04:09:03;100068.02;;;7.69;100.00
48404;BME280;34202;52.536;6.042;2024-03-02T04:14:04;100082.22;;;7.65;100.00
48404;BME280;34202;52.536;6.042;2024-03-02T04:19:06;100079.92;;;7.61;100.00
48404;BME280;34202;52.536;6.042;2024-03-02T04:24:06;100084.05;;;7.56;100.00
48404;BME280;34202;52.536;6.042;2024-03-02T04:29:07;100086.95;;;7.50;100.00
48404;BME280;34202;52.536;6.042;2024-03-02T04:34:08;100085.17;;;7.42;100.00
48404;BME280;34202;52.536;6.042;2024-03-02T04:39:08;100085.29;;;7.36;100.00
48404;BME280;34202;52.536;6.042;2024-03-02T04:44:09;100096.99;;;7.28;100.00
48404;BME280;34202;52.536;6.042;2024-03-02T04:49:10;100098.84;;;7.20;100.00
48404;BME280;34202;52.536;6.042;2024-03-02T04:54:10;100104.86;;;7.15;100.00
48404;BME280;34202;52.536;6.042;2024-03-02T04:59:11;100116.56;;;7.09;100.00
48404;BME280;34202;52.536;6.042;2024-03-02T05:04:11;100117.73;;;7.05;100.00
48404;BME280;34202;52.536;6.042;2024-03-02T05:09:12;100120.30;;;7.02;100.00
48404;BME280;34202;52.536;6.042;2024-03-02T05:14:12;100120.80;;;7.00;100.00
48404;BME280;34202;52.536;6.042;2024-03-02T05:19:13;100124.22;;;6.96;100.00
48404;BME280;34202;52.536;6.042;2024-03-02T05:24:13;100122.46;;;6.94;100.00
48404;BME280;34202;52.536;6.042;2024-03-02T05:29:13;100130.39;;;6.90;100.00
48404;BME280;34202;52.536;6.042;2024-03-02T05:34:14;100137.23;;;6.83;100.00
48404;BME280;34202;52.536;6.042;2024-03-02T05:39:15;100143.74;;;6.78;100.00
48404;BME280;34202;52.536;6.042;2024-03-02T05:44:16;100144.40;;;6.73;100.00
48404;BME280;34202;52.536;6.042;2024-03-02T05:49:16;100142.27;;;6.70;100.00
48404;BME280;34202;52.536;6.042;2024-03-02T05:54:16;100142.58;;;6.65;100.00
48404;BME280;34202;52.536;6.042;2024-03-02T05:59:17;100142.35;;;6.60;100.00
48404;BME280;34202;52.536;6.042;2024-03-02T06:04:18;100142.47;;;6.55;100.00
48404;BME280;34202;52.536;6.042;2024-03-02T06:09:18;100145.87;;;6.51;100.00
48404;BME280;34202;52.536;6.042;2024-03-02T06:14:20;100148.55;;;6.45;100.00
48404;BME280;34202;52.536;6.042;2024-03-02T06:19:20;100160.42;;;6.39;100.00
48404;BME280;34202;52.536;6.042;2024-03-02T06:24:21;100165.54;;;6.35;100.00
48404;BME280;34202;52.536;6.042;2024-03-02T06:29:21;100173.27;;;6.30;100.00
48404;BME280;34202;52.536;6.042;2024-03-02T06:34:22;100182.34;;;6.25;100.00
48404;BME280;34202;52.536;6.042;2024-03-02T06:39:22;100185.38;;;6.19;100.00
48404;BME280;34202;52.536;6.042;2024-03-02T06:44:23;100188.23;;;6.14;100.00
48404;BME280;34202;52.536;6.042;2024-03-02T06:49:23;100192.32;;;6.09;100.00
48404;BME280;34202;52.536;6.042;2024-03-02T06:54:23;100202.27;;;6.04;100.00
48404;BME280;34202;52.536;6.042;2024-03-02T06:59:24;100212.55;;;5.99;100.00
48404;BME280;34202;52.536;6.042;2024-03-02T07:04:25;100213.52;;;5.95;100.00
48404;BME280;34202;52.536;6.042;2024-03-02T07:09:25;100208.76;;;5.90;100.00
48404;BME280;34202;52.536;6.042;2024-03-02T07:14:26;100206.99;;;5.88;100.00
48404;BME280;34202;52.536;6.042;2024-03-02T07:19:46;100208.12;;;5.83;100.00
48404;BME280;34202;52.536;6.042;2024-03-02T07:24:46;100212.74;;;5.80;100.00
48404;BME280;34202;52.536;6.042;2024-03-02T07:29:47;100215.14;;;5.79;100.00
48404;BME280;34202;52.536;6.042;2024-03-02T07:34:47;100219.28;;;5.78;100.00
48404;BME280;34202;52.536;6.042;2024-03-02T07:39:48;100224.98;;;5.78;100.00
48404;BME280;34202;52.536;6.042;2024-03-02T07:44:49;100235.17;;;5.78;100.00
48404;BME280;34202;52.536;6.042;2024-03-02T07:49:49;100246.95;;;5.81;100.00
48404;BME280;34202;52.536;6.042;2024-03-02T07:54:50;100252.86;;;5.85;100.00
48404;BME280;34202;52.536;6.042;2024-03-02T07:59:50;100262.61;;;5.88;100.00
48404;BME280;34202;52.536;6.042;2024-03-02T08:04:51;100262.21;;;5.95;100.00
48404;BME280;34202;52.536;6.042;2024-03-02T08:09:51;100261.82;;;6.01;100.00
48404;BME280;34202;52.536;6.042;2024-03-02T08:14:52;100266.41;;;6.08;100.00
48404;BME280;34202;52.536;6.042;2024-03-02T08:19:52;100270.48;;;6.13;100.00
48404;BME280;34202;52.536;6.042;2024-03-02T08:24:54;100273.48;;;6.19;100.00
48404;BME280;34202;52.536;6.042;2024-03-02T08:29:54;100274.66;;;6.27;100.00
48404;BME280;34202;52.536;6.042;2024-03-02T08:34:55;100273.79;;;6.38;100.00
48404;BME280;34202;52.536;6.042;2024-03-02T08:39:55;100269.63;;;6.50;100.00
48404;BME280;34202;52.536;6.042;2024-03-02T08:44:56;100268.27;;;6.64;100.00
48404;BME280;34202;52.536;6.042;2024-03-02T08:49:56;100268.13;;;6.79;100.00
48404;BME280;34202;52.536;6.042;2024-03-02T08:54:56;100263.85;;;6.97;100.00
48404;BME280;34202;52.536;6.042;2024-03-02T08:59:57;100264.58;;;7.14;100.00
48404;BME280;34202;52.536;6.042;2024-03-02T09:04:57;100268.91;;;7.31;100.00
48404;BME280;34202;52.536;6.042;2024-03-02T09:09:58;100267.17;;;7.46;100.00
48404;BME280;34202;52.536;6.042;2024-03-02T09:14:59;100267.86;;;7.65;100.00
48404;BME280;34202;52.536;6.042;2024-03-02T09:20:00;100271.48;;;7.81;100.00
48404;BME280;34202;52.536;6.042;2024-03-02T09:25:01;100279.76;;;7.97;100.00
48404;BME280;34202;52.536;6.042;2024-03-02T09:30:01;100280.22;;;8.11;100.00
48404;BME280;34202;52.536;6.042;2024-03-02T09:35:01;100279.10;;;8.24;100.00
48404;BME280;34202;52.536;6.042;2024-03-02T09:40:02;100269.33;;;8.39;100.00
48404;BME280;34202;52.536;6.042;2024-03-02T09:45:04;100269.10;;;8.54;100.00
48404;BME280;34202;52.536;6.042;2024-03-02T09:50:05;100275.06;;;8.67;100.00
48404;BME280;34202;52.536;6.042;2024-03-02T09:55:08;100273.95;;;8.85;100.00
48404;BME280;34202;52.536;6.042;2024-03-02T10:00:09;100267.77;;;9.02;100.00
48404;BME280;34202;52.536;6.042;2024-03-02T10:05:23;100272.00;;;9.21;100.00
48404;BME280;34202;52.536;6.042;2024-03-02T10:10:37;100279.70;;;9.39;100.00
48404;BME280;34202;52.536;6.042;2024-03-02T10:15:41;100283.55;;;9.57;100.00
48404;BME280;34202;52.536;6.042;2024-03-02T10:20:41;100280.80;;;9.72;100.00
48404;BME280;34202;52.536;6.042;2024-03-02T10:25:43;100283.26;;;9.87;100.00
48404;BME280;34202;52.536;6.042;2024-03-02T10:30:47;100286.90;;;10.01;100.00
48404;BME280;34202;52.536;6.042;2024-03-02T10:35:49;100283.25;;;10.14;100.00
48404;BME280;34202;52.536;6.042;2024-03-02T10:40:50;100279.08;;;10.27;100.00
48404;BME280;34202;52.536;6.042;2024-03-02T10:45:52;100273.70;;;10.40;100.00
48404;BME280;34202;52.536;6.042;2024-03-02T10:50:53;100267.59;;;10.51;100.00
48404;BME280;34202;52.536;6.042;2024-03-02T10:55:57;100266.52;;;10.61;100.00
48404;BME280;34202;52.536;6.042;2024-03-02T11:01:03;100270.31;;;10.73;100.00
48404;BME280;34202;52.536;6.042;2024-03-02T11:06:07;100275.16;;;10.83;100.00
48404;BME280;34202;52.536;6.042;2024-03-02T11:11:14;100272.67;;;10.94;100.00
48404;BME280;34202;52.536;6.042;2024-03-02T11:16:24;100272.10;;;11.08;100.00
48404;BME280;34202;52.536;6.042;2024-03-02T11:21:27;100262.64;;;11.21;100.00
48404;BME280;34202;52.536;6.042;2024-03-02T11:26:28;100268.84;;;11.33;100.00
48404;BME280;34202;52.536;6.042;2024-03-02T11:31:57;100268.09;;;11.43;100.00
48404;BME280;34202;52.536;6.042;2024-03-02T11:36:59;100266.64;;;11.50;99.13
48404;BME280;34202;52.536;6.042;2024-03-02T11:41:59;100257.70;;;11.58;98.68
48404;BME280;34202;52.536;6.042;2024-03-02T11:47:01;100257.47;;;11.69;98.48
48404;BME280;34202;52.536;6.042;2024-03-02T11:52:02;100259.83;;;11.79;97.76
48404;BME280;34202;52.536;6.042;2024-03-02T11:57:03;100251.23;;;11.88;97.30
48404;BME280;34202;52.536;6.042;2024-03-02T12:02:04;100246.29;;;11.97;97.05
48404;BME280;34202;52.536;6.042;2024-03-02T12:07:05;100243.44;;;12.05;96.27
48404;BME280;34202;52.536;6.042;2024-03-02T12:12:07;100245.99;;;12.12;95.75
48404;BME280;34202;52.536;6.042;2024-03-02T12:17:08;100242.94;;;12.21;95.35
48404;BME280;34202;52.536;6.042;2024-03-02T12:22:08;100241.34;;;12.24;94.28
48404;BME280;34202;52.536;6.042;2024-03-02T12:27:09;100239.60;;;12.23;93.28
48404;BME280;34202;52.536;6.042;2024-03-02T12:32:09;100235.61;;;12.21;92.89
48404;BME280;34202;52.536;6.042;2024-03-02T12:37:12;100226.91;;;12.19;92.38
48404;BME280;34202;52.536;6.042;2024-03-02T12:42:13;100220.11;;;12.17;91.76
48404;BME280;34202;52.536;6.042;2024-03-02T12:47:14;100221.16;;;12.18;92.27
48404;BME280;34202;52.536;6.042;2024-03-02T12:52:14;100224.17;;;12.12;91.87
48404;BME280;34202;52.536;6.042;2024-03-02T12:57:21;100219.20;;;12.04;91.86
48404;BME280;34202;52.536;6.042;2024-03-02T13:02:21;100215.38;;;12.03;92.88
48404;BME280;34202;52.536;6.042;2024-03-02T13:07:23;100214.65;;;12.05;92.98
48404;BME280;34202;52.536;6.042;2024-03-02T13:12:24;100211.85;;;12.06;92.53
48404;BME280;34202;52.536;6.042;2024-03-02T13:17:25;100213.10;;;12.03;91.99
48404;BME280;34202;52.536;6.042;2024-03-02T13:22:26;100210.87;;;11.99;91.79
48404;BME280;34202;52.536;6.042;2024-03-02T13:27:26;100210.50;;;12.01;92.16
48404;BME280;34202;52.536;6.042;2024-03-02T13:32:27;100201.41;;;12.04;92.58
48404;BME280;34202;52.536;6.042;2024-03-02T13:37:27;100201.05;;;12.05;92.17
48404;BME280;34202;52.536;6.042;2024-03-02T13:42:28;100196.10;;;12.12;92.48
48404;BME280;34202;52.536;6.042;2024-03-02T13:47:28;100196.01;;;12.22;92.69
48404;BME280;34202;52.536;6.042;2024-03-02T13:52:28;100201.17;;;12.29;92.44
48404;BME280;34202;52.536;6.042;2024-03-02T13:57:30;100189.77;;;12.33;92.00
48404;BME280;34202;52.536;6.042;2024-03-02T14:02:31;100183.30;;;12.36;91.25
48404;BME280;34202;52.536;6.042;2024-03-02T14:07:31;100181.54;;;12.37;90.68
48404;BME280;34202;52.536;6.042;2024-03-02T14:12:31;100175.36;;;12.43;90.94
48404;BME280;34202;52.536;6.042;2024-03-02T14:17:32;100173.18;;;12.50;90.87
48404;BME280;34202;52.536;6.042;2024-03-02T14:22:32;100170.85;;;12.56;90.42
48404;BME280;34202;52.536;6.042;2024-03-02T14:27:34;100166.77;;;12.62;90.21
48404;BME280;34202;52.536;6.042;2024-03-02T14:32:35;100165.83;;;12.66;89.95
48404;BME280;34202;52.536;6.042;2024-03-02T14:37:37;100162.31;;;12.69;89.07
48404;BME280;34202;52.536;6.042;2024-03-02T14:42:37;100150.91;;;12.72;88.97
48404;BME280;34202;52.536;6.042;2024-03-02T14:47:38;100145.41;;;12.79;88.82
48404;BME280;34202;52.536;6.042;2024-03-02T14:52:38;100146.38;;;12.85;88.18
48404;BME280;34202;52.536;6.042;2024-03-02T14:57:39;100145.17;;;12.84;86.98
48404;BME280;34202;52.536;6.042;2024-03-02T15:02:39;100136.48;;;12.81;86.72
48404;BME280;34202;52.536;6.042;2024-03-02T15:07:40;100136.67;;;12.79;86.54
48404;BME280;34202;52.536;6.042;2024-03-02T15:12:40;100129.53;;;12.78;86.53
48404;BME280;34202;52.536;6.042;2024-03-02T15:17:41;100123.11;;;12.75;86.28
48404;BME280;34202;52.536;6.042;2024-03-02T15:22:41;100126.20;;;12.79;86.03
48404;BME280;34202;52.536;6.042;2024-03-02T15:27:42;100120.58;;;12.83;85.63
48404;BME280;34202;52.536;6.042;2024-03-02T15:32:43;100115.52;;;12.83;85.46
48404;BME280;34202;52.536;6.042;2024-03-02T15:37:43;100115.02;;;12.80;85.15
48404;BME280;34202;52.536;6.042;2024-03-02T15:42:44;100105.31;;;12.75;84.34
48404;BME280;34202;52.536;6.042;2024-03-02T15:47:44;100112.70;;;12.70;84.38
48404;BME280;34202;52.536;6.042;2024-03-02T15:52:45;100111.73;;;12.64;84.27
48404;BME280;34202;52.536;6.042;2024-03-02T15:57:47;100113.77;;;12.57;83.97
48404;BME280;34202;52.536;6.042;2024-03-02T16:02:47;100109.67;;;12.49;83.80
48404;BME280;34202;52.536;6.042;2024-03-02T16:07:48;100108.90;;;12.40;84.01
48404;BME280;34202;52.536;6.042;2024-03-02T16:12:48;100109.86;;;12.33;84.05
48404;BME280;34202;52.536;6.042;2024-03-02T16:17:49;100108.38;;;12.26;84.24
48404;BME280;34202;52.536;6.042;2024-03-02T16:22:49;100111.94;;;12.19;83.89
48404;BME280;34202;52.536;6.042;2024-03-02T16:27:51;100112.39;;;12.11;84.24
48404;BME280;34202;52.536;6.042;2024-03-02T16:32:52;100113.36;;;12.02;84.56
48404;BME280;34202;52.536;6.042;2024-03-02T16:37:52;100110.13;;;11.95;84.44
48404;BME280;34202;52.536;6.042;2024-03-02T16:42:53;100109.83;;;11.88;84.49
48404;BME280;34202;52.536;6.042;2024-03-02T16:47:53;100105.35;;;11.80;84.65
48404;BME280;34202;52.536;6.042;2024-03-02T16:52:53;100098.12;;;11.72;84.68
48404;BME280;34202;52.536;6.042;2024-03-02T16:57:54;100101.67;;;11.65;84.96
48404;BME280;34202;52.536;6.042;2024-03-02T17:02:54;100105.93;;;11.56;85.26
48404;BME280;34202;52.536;6.042;2024-03-02T17:07:55;100113.16;;;11.48;85.23
48404;BME280;34202;52.536;6.042;2024-03-02T17:12:58;100106.10;;;11.38;85.43
48404;BME280;34202;52.536;6.042;2024-03-02T17:17:59;100110.33;;;11.31;85.76
48404;BME280;34202;52.536;6.042;2024-03-02T17:23:00;100111.96;;;11.22;86.15
48404;BME280;34202;52.536;6.042;2024-03-02T17:28:20;100109.06;;;11.14;86.30
48404;BME280;34202;52.536;6.042;2024-03-02T17:33:21;100111.75;;;11.04;86.67
48404;BME280;34202;52.536;6.042;2024-03-02T17:38:21;100115.80;;;10.96;87.02
48404;BME280;34202;52.536;6.042;2024-03-02T17:43:22;100119.85;;;10.88;87.42
48404;BME280;34202;52.536;6.042;2024-03-02T17:48:22;100126.52;;;10.80;87.64
48404;BME280;34202;52.536;6.042;2024-03-02T17:53:23;100134.39;;;10.72;87.95
48404;BME280;34202;52.536;6.042;2024-03-02T17:58:23;100138.61;;;10.65;88.17
48404;BME280;34202;52.536;6.042;2024-03-02T18:03:24;100144.91;;;10.58;88.54
48404;BME280;34202;52.536;6.042;2024-03-02T18:08:24;100145.28;;;10.49;88.74
48404;BME280;34202;52.536;6.042;2024-03-02T18:13:24;100146.71;;;10.43;89.09
48404;BME280;34202;52.536;6.042;2024-03-02T18:18:25;100148.46;;;10.38;89.43
48404;BME280;34202;52.536;6.042;2024-03-02T18:23:26;100154.91;;;10.34;89.76
48404;BME280;34202;52.536;6.042;2024-03-02T18:28:26;100156.28;;;10.29;89.92
48404;BME280;34202;52.536;6.042;2024-03-02T18:33:27;100155.60;;;10.25;90.23
48404;BME280;34202;52.536;6.042;2024-03-02T18:38:27;100151.08;;;10.22;90.63
48404;BME280;34202;52.536;6.042;2024-03-02T18:43:27;100150.56;;;10.20;91.00
48404;BME280;34202;52.536;6.042;2024-03-02T18:48:28;100153.18;;;10.20;91.38
48404;BME280;34202;52.536;6.042;2024-03-02T18:53:28;100149.71;;;10.20;91.59
48404;BME280;34202;52.536;6.042;2024-03-02T18:58:29;100149.70;;;10.20;91.85
48404;BME280;34202;52.536;6.042;2024-03-02T19:03:30;100145.01;;;10.23;92.21
48404;BME280;34202;52.536;6.042;2024-03-02T19:08:30;100146.20;;;10.27;92.54
48404;BME280;34202;52.536;6.042;2024-03-02T19:13:32;100145.00;;;10.31;92.61
48404;BME280;34202;52.536;6.042;2024-03-02T19:18:32;100140.65;;;10.34;92.70
48404;BME280;34202;52.536;6.042;2024-03-02T19:23:33;100142.37;;;10.37;92.95
48404;BME280;34202;52.536;6.042;2024-03-02T19:28:34;100141.16;;;10.39;93.03
48404;BME280;34202;52.536;6.042;2024-03-02T19:33:34;100145.84;;;10.40;93.12
48404;BME280;34202;52.536;6.042;2024-03-02T19:38:35;100142.53;;;10.40;93.19
48404;BME280;34202;52.536;6.042;2024-03-02T19:43:35;100138.02;;;10.39;93.31
48404;BME280;34202;52.536;6.042;2024-03-02T19:48:36;100138.36;;;10.39;93.39
48404;BME280;34202;52.536;6.042;2024-03-02T19:53:36;100135.42;;;10.38;93.48
48404;BME280;34202;52.536;6.042;2024-03-02T19:58:38;100141.85;;;10.37;93.64
48404;BME280;34202;52.536;6.042;2024-03-02T20:03:38;100136.82;;;10.35;93.69
48404;BME280;34202;52.536;6.042;2024-03-02T20:08:38;100128.99;;;10.35;93.72
48404;BME280;34202;52.536;6.042;2024-03-02T20:13:39;100124.30;;;10.35;93.87
48404;BME280;34202;52.536;6.042;2024-03-02T20:18:39;100114.73;;;10.34;94.03
48404;BME280;34202;52.536;6.042;2024-03-02T20:23:40;100111.26;;;10.35;94.23
48404;BME280;34202;52.536;6.042;2024-03-02T20:28:42;100111.77;;;10.34;94.33
48404;BME280;34202;52.536;6.042;2024-03-02T20:33:43;100103.42;;;10.34;94.49
48404;BME280;34202;52.536;6.042;2024-03-02T20:38:43;100097.16;;;10.35;94.56
48404;BME280;34202;52.536;6.042;2024-03-02T20:43:44;100093.67;;;10.35;94.75
48404;BME280;34202;52.536;6.042;2024-03-02T20:48:45;100086.20;;;10.32;94.61
48404;BME280;34202;52.536;6.042;2024-03-02T20:53:47;100086.01;;;10.30;94.65
48404;BME280;34202;52.536;6.042;2024-03-02T20:58:48;100085.69;;;10.26;94.73
48404;BME280;34202;52.536;6.042;2024-03-02T21:03:48;100082.56;;;10.23;94.79
48404;BME280;34202;52.536;6.042;2024-03-02T21:08:49;100085.02;;;10.20;94.91
48404;BME280;34202;52.536;6.042;2024-03-02T21:13:49;100080.85;;;10.18;95.03
48404;BME280;34202;52.536;6.042;2024-03-02T21:18:50;100086.60;;;10.16;95.13
48404;BME280;34202;52.536;6.042;2024-03-02T21:23:50;100087.30;;;10.15;95.52
48404;BME280;34202;52.536;6.042;2024-03-02T21:28:51;100087.66;;;10.13;95.62
48404;BME280;34202;52.536;6.042;2024-03-02T21:33:51;100088.52;;;10.12;95.94
48404;BME280;34202;52.536;6.042;2024-03-02T21:38:51;100086.96;;;10.13;96.15
48404;BME280;34202;52.536;6.042;2024-03-02T21:43:52;100087.83;;;10.13;96.14
48404;BME280;34202;52.536;6.042;2024-03-02T21:48:52;100090.79;;;10.11;96.31
48404;BME280;34202;52.536;6.042;2024-03-02T21:53:53;100088.17;;;10.10;96.33
48404;BME280;34202;52.536;6.042;2024-03-02T21:58:54;100095.48;;;10.09;96.30
48404;BME280;34202;52.536;6.042;2024-03-02T22:03:55;100105.92;;;10.07;96.43
48404;BME280;34202;52.536;6.042;2024-03-02T22:08:55;100107.31;;;10.06;96.48
48404;BME280;34202;52.536;6.042;2024-03-02T22:13:56;100110.63;;;10.05;96.48
48404;BME280;34202;52.536;6.042;2024-03-02T22:18:56;100113.58;;;10.02;96.36
48404;BME280;34202;52.536;6.042;2024-03-02T22:23:56;100115.16;;;9.98;96.30
48404;BME280;34202;52.536;6.042;2024-03-02T22:28:57;100122.81;;;9.93;96.31
48404;BME280;34202;52.536;6.042;2024-03-02T22:33:57;100121.79;;;9.86;96.26
48404;BME280;34202;52.536;6.042;2024-03-02T22:38:58;100120.41;;;9.80;96.36
48404;BME280;34202;52.536;6.042;2024-03-02T22:43:58;100118.68;;;9.75;96.57
48404;BME280;34202;52.536;6.042;2024-03-02T22:48:59;100115.90;;;9.72;96.61
48404;BME280;34202;52.536;6.042;2024-03-02T22:53:59;100114.17;;;9.69;96.72
48404;BME280;34202;52.536;6.042;2024-03-02T22:58:59;100122.17;;;9.63;96.68
48404;BME280;34202;52.536;6.042;2024-03-02T23:04:01;100125.83;;;9.58;96.59
48404;BME280;34202;52.536;6.042;2024-03-02T23:09:01;100123.22;;;9.54;96.76
48404;BME280;34202;52.536;6.042;2024-03-02T23:14:03;100125.13;;;9.51;96.84
48404;BME280;34202;52.536;6.042;2024-03-02T23:19:04;100126.52;;;9.46;96.98
48404;BME280;34202;52.536;6.042;2024-03-02T23:24:05;100127.05;;;9.42;97.14
48404;BME280;34202;52.536;6.042;2024-03-02T23:29:05;100130.17;;;9.37;97.28
48404;BME280;34202;52.536;6.042;2024-03-02T23:34:06;100130.34;;;9.36;97.65
48404;BME280;34202;52.536;6.042;2024-03-02T23:39:06;100123.39;;;9.34;97.78
48404;BME280;34202;52.536;6.042;2024-03-02T23:44:07;100114.88;;;9.32;98.04
48404;BME280;34202;52.536;6.042;2024-03-02T23:49:07;100113.33;;;9.33;98.22
48404;BME280;34202;52.536;6.042;2024-03-02T23:54:08;100112.27;;;9.34;98.41
48404;BME280;34202;52.536;6.042;2024-03-02T23:59:08;100110.73;;;9.36;98.66
